Lakeport, California
Current Conditions -  °F | °C
As of 3:56 PM on Sunday 25 Jan 2015 (Local Time) from KUKI Reporting Station
Clear Clear  
Wind Chill: 72°   Ceiling: Unl
Heat Index: 72°   Visibility: 10mi
Dew Point: 50°   Wind: 3mph
Humidity: 46%   Direction: 290°WNW
Pressure: 29.99"   Gusts: NA
Location:  39.04°N, 122.92°W
Report Text: KUKI 252356Z AUTO 29003KT 10SM CLR 22/10 A2999 RMK AO2 SLP152 T02220100 10233 20094 56019
Loading
Personal Weather Stations






























Interactive Weather Map New forecast layout! Learn more

10-Day Weather Forecast

Advertisements
Track Severe Weather on mobile